sensor_id;sensor_type;location;lat;lon;timestamp;pressure;altitude;pressure_sealevel;temperature;humidity
8477;BME280;4275;42.854;23.222;2024-01-30T00:56:16;58794.06;;;-141.02;100.00
8477;BME280;4275;42.854;23.222;2024-01-30T01:08:50;59004.31;;;-141.02;100.00
8477;BME280;4275;42.854;23.222;2024-01-30T01:15:09;59189.50;;;-141.02;100.00
8477;BME280;4275;42.854;23.222;2024-01-30T01:18:04;59536.75;;;-141.02;100.00
8477;BME280;4275;42.854;23.222;2024-01-30T01:20:43;59857.03;;;-141.02;100.00
8477;BME280;4275;42.854;23.222;2024-01-30T01:23:20;60061.56;;;-141.02;100.00
8477;BME280;4275;42.854;23.222;2024-01-30T01:25:48;60208.22;;;-141.02;100.00
8477;BME280;4275;42.854;23.222;2024-01-30T01:28:15;60169.63;;;-141.02;100.00
8477;BME280;4275;42.854;23.222;2024-01-30T01:30:45;60339.44;;;-141.02;100.00
8477;BME280;4275;42.854;23.222;2024-01-30T01:33:41;60524.69;;;-141.02;100.00
8477;BME280;4275;42.854;23.222;2024-01-30T01:36:30;60671.34;;;-141.02;100.00
8477;BME280;4275;42.854;23.222;2024-01-30T01:38:57;60756.28;;;-141.02;100.00
8477;BME280;4275;42.854;23.222;2024-01-30T02:44:18;62111.38;;;-141.02;100.00
8477;BME280;4275;42.854;23.222;2024-01-30T02:47:14;61968.50;;;-141.02;100.00
8477;BME280;4275;42.854;23.222;2024-01-30T02:50:07;62088.19;;;-141.02;100.00
8477;BME280;4275;42.854;23.222;2024-01-30T02:53:01;62005.16;;;-141.02;100.00
8477;BME280;4275;42.854;23.222;2024-01-30T02:55:49;62063.09;;;-141.02;100.00
8477;BME280;4275;42.854;23.222;2024-01-30T02:58:39;62088.19;;;-141.02;100.00
8477;BME280;4275;42.854;23.222;2024-01-30T03:01:30;61833.34;;;-141.02;100.00
8477;BME280;4275;42.854;23.222;2024-01-30T03:04:22;61705.94;;;-141.02;100.00
8477;BME280;4275;42.854;23.222;2024-01-30T03:07:17;61721.38;;;-141.02;100.00
8477;BME280;4275;42.854;23.222;2024-01-30T03:13:07;61171.22;;;-141.02;100.00
8477;BME280;4275;42.854;23.222;2024-01-30T03:18:49;60902.94;;;-141.02;100.00
8477;BME280;4275;42.854;23.222;2024-01-30T03:24:41;60677.16;;;-141.02;100.00
8477;BME280;4275;42.854;23.222;2024-01-30T03:33:49;60239.09;;;-141.02;100.00
8477;BME280;4275;42.854;23.222;2024-01-30T03:36:42;60167.69;;;-141.02;100.00
8477;BME280;4275;42.854;23.222;2024-01-30T03:42:44;59835.81;;;-141.02;100.00
8477;BME280;4275;42.854;23.222;2024-01-30T03:45:44;59992.09;;;-141.02;100.00
8477;BME280;4275;42.854;23.222;2024-01-30T03:48:31;59938.06;;;-141.02;100.00
8477;BME280;4275;42.854;23.222;2024-01-30T03:57:48;59602.34;;;-141.02;100.00
8477;BME280;4275;42.854;23.222;2024-01-30T04:00:48;59532.91;;;-141.02;100.00
8477;BME280;4275;42.854;23.222;2024-01-30T04:03:34;59339.97;;;-141.02;100.00
8477;BME280;4275;42.854;23.222;2024-01-30T04:06:23;59093.06;;;-141.02;100.00
8477;BME280;4275;42.854;23.222;2024-01-30T04:09:19;59067.97;;;-141.02;100.00
8477;BME280;4275;42.854;23.222;2024-01-30T04:12:17;59073.78;;;-141.02;100.00
8477;BME280;4275;42.854;23.222;2024-01-30T04:18:24;58846.16;;;-141.02;100.00
8477;BME280;4275;42.854;23.222;2024-01-30T04:21:18;58958.03;;;-141.02;100.00
8477;BME280;4275;42.854;23.222;2024-01-30T04:24:11;58873.16;;;-141.02;100.00
8477;BME280;4275;42.854;23.222;2024-01-30T04:30:10;58666.78;;;-141.02;100.00
8477;BME280;4275;42.854;23.222;2024-01-30T04:32:37;58634.00;;;-141.02;100.00
8477;BME280;4275;42.854;23.222;2024-01-30T04:35:06;58738.16;;;-141.02;100.00
8477;BME280;4275;42.854;23.222;2024-01-30T04:37:33;58769.00;;;-141.02;100.00
8477;BME280;4275;42.854;23.222;2024-01-30T04:40:00;58850.00;;;-141.02;100.00
8477;BME280;4275;42.854;23.222;2024-01-30T04:42:28;58695.72;;;-141.02;100.00
8477;BME280;4275;42.854;23.222;2024-01-30T04:44:55;58412.19;;;-141.02;100.00
8477;BME280;4275;42.854;23.222;2024-01-30T04:47:22;58101.69;;;-141.02;100.00
8477;BME280;4275;42.854;23.222;2024-01-30T04:49:51;58013.00;;;-141.02;100.00
8477;BME280;4275;42.854;23.222;2024-01-30T04:52:19;58018.78;;;-141.02;100.00
8477;BME280;4275;42.854;23.222;2024-01-30T04:54:46;57955.13;;;-141.02;100.00
8477;BME280;4275;42.854;23.222;2024-01-30T04:57:13;58147.97;;;-141.02;100.00
8477;BME280;4275;42.854;23.222;2024-01-30T04:59:40;58149.91;;;-141.02;100.00
8477;BME280;4275;42.854;23.222;2024-01-30T05:02:07;57866.44;;;-141.02;100.00
8477;BME280;4275;42.854;23.222;2024-01-30T05:04:34;57667.81;;;-141.02;100.00
8477;BME280;4275;42.854;23.222;2024-01-30T05:07:00;57891.50;;;-141.02;100.00
8477;BME280;4275;42.854;23.222;2024-01-30T05:09:29;57596.47;;;-141.02;100.00
8477;BME280;4275;42.854;23.222;2024-01-30T05:11:56;57565.63;;;-141.02;100.00
8477;BME280;4275;42.854;23.222;2024-01-30T05:14:23;57642.75;;;-141.02;100.00
8477;BME280;4275;42.854;23.222;2024-01-30T05:16:50;57910.78;;;-141.02;100.00
8477;BME280;4275;42.854;23.222;2024-01-30T05:19:17;57835.59;;;-141.02;100.00
8477;BME280;4275;42.854;23.222;2024-01-30T05:21:44;57843.31;;;-141.02;100.00
8477;BME280;4275;42.854;23.222;2024-01-30T05:24:11;58456.56;;;-141.02;100.00
8477;BME280;4275;42.854;23.222;2024-01-30T05:26:39;58394.84;;;-141.02;100.00
8477;BME280;4275;42.854;23.222;2024-01-30T05:29:07;58502.84;;;-141.02;100.00
8477;BME280;4275;42.854;23.222;2024-01-30T05:31:34;58144.13;;;-141.02;100.00
8477;BME280;4275;42.854;23.222;2024-01-30T05:34:01;57766.16;;;-141.02;100.00
8477;BME280;4275;42.854;23.222;2024-01-30T05:36:28;57581.06;;;-141.02;100.00
8477;BME280;4275;42.854;23.222;2024-01-30T05:38:56;57611.91;;;-141.02;100.00
8477;BME280;4275;42.854;23.222;2024-01-30T05:41:23;57858.72;;;-141.02;100.00
8477;BME280;4275;42.854;23.222;2024-01-30T05:43:51;57399.81;;;-141.02;100.00
8477;BME280;4275;42.854;23.222;2024-01-30T05:46:18;57093.28;;;-141.02;100.00
8477;BME280;4275;42.854;23.222;2024-01-30T05:48:45;57330.41;;;-141.02;100.00
8477;BME280;4275;42.854;23.222;2024-01-30T05:51:12;57091.34;;;-141.02;100.00
8477;BME280;4275;42.854;23.222;2024-01-30T05:53:39;57361.25;;;-141.02;100.00
8477;BME280;4275;42.854;23.222;2024-01-30T05:56:06;57727.59;;;-141.02;100.00
8477;BME280;4275;42.854;23.222;2024-01-30T05:58:34;57594.56;;;-141.02;100.00
8477;BME280;4275;42.854;23.222;2024-01-30T06:01:06;57667.81;;;-141.02;100.00
8477;BME280;4275;42.854;23.222;2024-01-30T06:03:34;58005.28;;;-141.02;100.00
8477;BME280;4275;42.854;23.222;2024-01-30T06:06:01;58296.47;;;-141.02;100.00
8477;BME280;4275;42.854;23.222;2024-01-30T06:08:28;58410.25;;;-141.02;100.00
8477;BME280;4275;42.854;23.222;2024-01-30T06:10:54;58691.84;;;-141.02;100.00
8477;BME280;4275;42.854;23.222;2024-01-30T06:13:20;58637.84;;;-141.02;100.00
8477;BME280;4275;42.854;23.222;2024-01-30T06:15:47;58539.47;;;-141.02;100.00
8477;BME280;4275;42.854;23.222;2024-01-30T06:18:15;58402.53;;;-141.02;100.00
8477;BME280;4275;42.854;23.222;2024-01-30T06:20:42;58248.25;;;-141.02;100.00
8477;BME280;4275;42.854;23.222;2024-01-30T06:23:09;58429.56;;;-141.02;100.00
8477;BME280;4275;42.854;23.222;2024-01-30T06:25:38;58682.22;;;-141.02;100.00
8477;BME280;4275;42.854;23.222;2024-01-30T06:28:05;58861.59;;;-141.02;100.00
8477;BME280;4275;42.854;23.222;2024-01-30T06:30:32;59224.25;;;-141.02;100.00
8477;BME280;4275;42.854;23.222;2024-01-30T06:32:59;59559.91;;;-141.02;100.00
8477;BME280;4275;42.854;23.222;2024-01-30T06:35:28;59779.84;;;-141.02;100.00
8477;BME280;4275;42.854;23.222;2024-01-30T06:37:55;60254.53;;;-141.02;100.00
8477;BME280;4275;42.854;23.222;2024-01-30T06:40:21;59893.69;;;-141.02;100.00
8477;BME280;4275;42.854;23.222;2024-01-30T06:42:48;60019.09;;;-141.02;100.00
8477;BME280;4275;42.854;23.222;2024-01-30T06:45:15;60266.09;;;-141.02;100.00
8477;BME280;4275;42.854;23.222;2024-01-30T06:47:42;60775.56;;;-141.02;100.00
8477;BME280;4275;42.854;23.222;2024-01-30T06:50:09;61319.84;;;-141.02;100.00
8477;BME280;4275;42.854;23.222;2024-01-30T06:52:38;61277.41;;;-141.02;99.89
8477;BME280;4275;42.854;23.222;2024-01-30T06:55:05;60976.28;;;-141.02;95.87
8477;BME280;4275;42.854;23.222;2024-01-30T06:57:32;61107.53;;;-141.02;93.69
8477;BME280;4275;42.854;23.222;2024-01-30T06:59:59;62038.00;;;-141.02;94.38
8477;BME280;4275;42.854;23.222;2024-01-30T07:02:27;61902.84;;;-141.02;91.16
8477;BME280;4275;42.854;23.222;2024-01-30T07:04:53;62134.53;;;-141.02;92.40
8477;BME280;4275;42.854;23.222;2024-01-30T07:07:20;62497.53;;;-141.02;90.22
8477;BME280;4275;42.854;23.222;2024-01-30T07:09:49;62319.88;;;-141.02;86.77
8477;BME280;4275;42.854;23.222;2024-01-30T07:12:21;62729.25;;;-141.02;90.20
8477;BME280;4275;42.854;23.222;2024-01-30T07:14:48;62601.78;;;-141.02;89.82
8477;BME280;4275;42.854;23.222;2024-01-30T07:17:15;62292.84;;;-141.02;89.27
8477;BME280;4275;42.854;23.222;2024-01-30T07:19:43;62727.31;;;-141.02;91.97
8477;BME280;4275;42.854;23.222;2024-01-30T07:22:09;63287.38;;;-141.02;91.93
8477;BME280;4275;42.854;23.222;2024-01-30T07:24:42;62543.88;;;-141.02;87.73
8477;BME280;4275;42.854;23.222;2024-01-30T07:27:11;63258.41;;;-141.02;87.96
8477;BME280;4275;42.854;23.222;2024-01-30T07:29:38;62512.97;;;-141.02;87.79
8477;BME280;4275;42.854;23.222;2024-01-30T07:32:05;62883.72;;;-141.02;88.14
8477;BME280;4275;42.854;23.222;2024-01-30T07:34:31;62833.53;;;-141.02;88.23
8477;BME280;4275;42.854;23.222;2024-01-30T07:36:58;62688.69;;;-141.02;86.71
8477;BME280;4275;42.854;23.222;2024-01-30T07:39:25;62574.75;;;-141.02;85.22
8477;BME280;4275;42.854;23.222;2024-01-30T07:41:52;64500.50;;;-141.02;89.59
8477;BME280;4275;42.854;23.222;2024-01-30T07:44:20;64537.19;;;-141.02;86.54
8477;BME280;4275;42.854;23.222;2024-01-30T07:46:47;62970.63;;;-141.02;84.54
8477;BME280;4275;42.854;23.222;2024-01-30T07:49:14;61769.63;;;-141.02;83.32
8477;BME280;4275;42.854;23.222;2024-01-30T07:51:41;61319.84;;;-141.02;86.54
8477;BME280;4275;42.854;23.222;2024-01-30T07:54:08;61551.50;;;-141.02;85.82
8477;BME280;4275;42.854;23.222;2024-01-30T07:56:35;61065.06;;;-141.02;85.45
8477;BME280;4275;42.854;23.222;2024-01-30T07:59:02;61038.06;;;-141.02;85.48
8477;BME280;4275;42.854;23.222;2024-01-30T08:01:33;60524.69;;;-141.02;85.05
8477;BME280;4275;42.854;23.222;2024-01-30T08:04:00;60599.94;;;-141.02;86.22
8477;BME280;4275;42.854;23.222;2024-01-30T08:06:27;60744.69;;;-141.02;85.96
8477;BME280;4275;42.854;23.222;2024-01-30T08:08:54;60684.88;;;-141.02;85.33
8477;BME280;4275;42.854;23.222;2024-01-30T08:11:22;60636.63;;;-141.02;85.85
8477;BME280;4275;42.854;23.222;2024-01-30T08:13:52;60657.84;;;-141.02;85.26
8477;BME280;4275;42.854;23.222;2024-01-30T08:16:19;61045.78;;;-141.02;86.61
8477;BME280;4275;42.854;23.222;2024-01-30T08:18:47;60887.50;;;-141.02;85.80
8477;BME280;4275;42.854;23.222;2024-01-30T08:21:14;61507.09;;;-141.02;83.92
8477;BME280;4275;42.854;23.222;2024-01-30T08:23:42;61524.47;;;-141.02;82.01
8477;BME280;4275;42.854;23.222;2024-01-30T08:26:09;61721.38;;;-141.02;80.92
8477;BME280;4275;42.854;23.222;2024-01-30T08:28:36;62833.53;;;-141.02;83.24
8477;BME280;4275;42.854;23.222;2024-01-30T08:31:03;63150.25;;;-141.02;80.72
8477;BME280;4275;42.854;23.222;2024-01-30T08:33:33;62733.09;;;-141.02;80.68
8477;BME280;4275;42.854;23.222;2024-01-30T08:36:02;61605.56;;;-141.02;81.58
8477;BME280;4275;42.854;23.222;2024-01-30T08:38:29;61771.56;;;-141.02;82.84
8477;BME280;4275;42.854;23.222;2024-01-30T08:40:56;62582.50;;;-141.02;84.35
8477;BME280;4275;42.854;23.222;2024-01-30T08:43:23;62022.56;;;-141.02;81.06
8477;BME280;4275;42.854;23.222;2024-01-30T08:45:50;61489.72;;;-141.02;80.91
8477;BME280;4275;42.854;23.222;2024-01-30T08:48:16;61207.91;;;-141.02;81.24
8477;BME280;4275;42.854;23.222;2024-01-30T08:50:44;61694.34;;;-141.02;83.47
8477;BME280;4275;42.854;23.222;2024-01-30T08:53:12;62215.63;;;-141.02;83.93
8477;BME280;4275;42.854;23.222;2024-01-30T08:55:39;63080.72;;;-141.02;79.90
8477;BME280;4275;42.854;23.222;2024-01-30T08:58:07;62713.78;;;-141.02;77.71
8477;BME280;4275;42.854;23.222;2024-01-30T09:00:34;62773.66;;;-141.02;82.40
8477;BME280;4275;42.854;23.222;2024-01-30T09:03:01;63285.44;;;-141.02;82.97
8477;BME280;4275;42.854;23.222;2024-01-30T09:05:28;63984.66;;;-141.02;80.92
8477;BME280;4275;42.854;23.222;2024-01-30T09:07:55;64181.72;;;-141.02;77.06
8477;BME280;4275;42.854;23.222;2024-01-30T09:10:23;64007.84;;;-141.02;79.95
8477;BME280;4275;42.854;23.222;2024-01-30T09:12:50;63963.41;;;-141.02;80.79
8477;BME280;4275;42.854;23.222;2024-01-30T09:15:18;63140.59;;;-141.02;80.81
8477;BME280;4275;42.854;23.222;2024-01-30T09:17:45;64166.25;;;-141.02;80.98
8477;BME280;4275;42.854;23.222;2024-01-30T09:20:12;64711.09;;;-141.02;79.67
8477;BME280;4275;42.854;23.222;2024-01-30T09:22:39;64328.53;;;-141.02;77.32
8477;BME280;4275;42.854;23.222;2024-01-30T09:25:06;63706.50;;;-141.02;78.18
8477;BME280;4275;42.854;23.222;2024-01-30T09:27:35;65445.41;;;-141.02;75.27
8477;BME280;4275;42.854;23.222;2024-01-30T09:30:02;64881.13;;;-141.02;77.29
8477;BME280;4275;42.854;23.222;2024-01-30T09:32:29;63262.25;;;-141.02;78.69
8477;BME280;4275;42.854;23.222;2024-01-30T09:34:56;62821.94;;;-141.02;80.31
8477;BME280;4275;42.854;23.222;2024-01-30T09:37:23;64038.75;;;-141.02;81.32
8477;BME280;4275;42.854;23.222;2024-01-30T09:39:50;64714.97;;;-141.02;79.27
8477;BME280;4275;42.854;23.222;2024-01-30T09:42:23;66655.44;;;-141.02;77.05
8477;BME280;4275;42.854;23.222;2024-01-30T09:44:55;67111.72;;;-141.02;73.02
8477;BME280;4275;42.854;23.222;2024-01-30T09:47:22;65232.81;;;-141.02;73.97
8477;BME280;4275;42.854;23.222;2024-01-30T09:49:50;66456.31;;;-141.02;76.05
8477;BME280;4275;42.854;23.222;2024-01-30T09:52:18;65167.13;;;-141.02;70.66
8477;BME280;4275;42.854;23.222;2024-01-30T09:54:45;64718.81;;;-141.02;72.26
8477;BME280;4275;42.854;23.222;2024-01-30T09:57:12;63501.75;;;-141.02;71.90
8477;BME280;4275;42.854;23.222;2024-01-30T09:59:39;63430.28;;;-141.02;71.31
8477;BME280;4275;42.854;23.222;2024-01-30T10:02:07;64865.69;;;-141.02;71.82
8477;BME280;4275;42.854;23.222;2024-01-30T10:04:36;64313.09;;;-141.02;71.61
8477;BME280;4275;42.854;23.222;2024-01-30T10:07:03;65799.09;;;-141.02;73.04
8477;BME280;4275;42.854;23.222;2024-01-30T10:09:32;66199.22;;;-141.02;69.59
8477;BME280;4275;42.854;23.222;2024-01-30T10:11:59;64799.97;;;-141.02;70.90
8477;BME280;4275;42.854;23.222;2024-01-30T10:14:26;66131.56;;;-141.02;70.10
8477;BME280;4275;42.854;23.222;2024-01-30T10:16:53;67040.19;;;-141.02;68.54
8477;BME280;4275;42.854;23.222;2024-01-30T10:19:21;66245.59;;;-141.02;69.69
8477;BME280;4275;42.854;23.222;2024-01-30T10:21:48;64320.81;;;-141.02;69.59
8477;BME280;4275;42.854;23.222;2024-01-30T10:24:15;64421.28;;;-141.02;68.99
8477;BME280;4275;42.854;23.222;2024-01-30T10:26:43;65364.25;;;-141.02;69.14
8477;BME280;4275;42.854;23.222;2024-01-30T10:32:30;65880.28;;;-141.02;69.95
8477;BME280;4275;42.854;23.222;2024-01-30T10:34:58;66390.59;;;-141.02;67.84
8477;BME280;4275;42.854;23.222;2024-01-30T10:37:25;65468.59;;;-141.02;68.26
8477;BME280;4275;42.854;23.222;2024-01-30T10:39:53;65228.97;;;-141.02;68.56
8477;BME280;4275;42.854;23.222;2024-01-30T10:42:26;65016.41;;;-141.02;68.57
8477;BME280;4275;42.854;23.222;2024-01-30T10:44:58;66324.84;;;-141.02;69.18
8477;BME280;4275;42.854;23.222;2024-01-30T10:47:27;65984.66;;;-141.02;69.22
8477;BME280;4275;42.854;23.222;2024-01-30T10:49:55;66404.13;;;-141.02;69.67
8477;BME280;4275;42.854;23.222;2024-01-30T10:52:24;66164.41;;;-141.02;70.30
8477;BME280;4275;42.854;23.222;2024-01-30T10:54:54;66665.09;;;-141.02;69.25
8477;BME280;4275;42.854;23.222;2024-01-30T10:57:22;68450.00;;;-141.02;69.67
8477;BME280;4275;42.854;23.222;2024-01-30T10:59:51;69022.59;;;-141.02;67.16
8477;BME280;4275;42.854;23.222;2024-01-30T11:02:19;70187.44;;;-141.02;67.10
8477;BME280;4275;42.854;23.222;2024-01-30T11:04:47;66889.38;;;-141.02;67.43
8477;BME280;4275;42.854;23.222;2024-01-30T11:07:14;67368.91;;;-141.02;66.76
8477;BME280;4275;42.854;23.222;2024-01-30T11:09:49;66616.75;;;-141.02;66.86
8477;BME280;4275;42.854;23.222;2024-01-30T11:12:21;66856.50;;;-141.02;67.12
8477;BME280;4275;42.854;23.222;2024-01-30T11:15:05;67088.50;;;-141.02;66.10
8477;BME280;4275;42.854;23.222;2024-01-30T11:17:43;68306.88;;;-141.02;66.48
8477;BME280;4275;42.854;23.222;2024-01-30T11:20:11;67552.59;;;-141.02;66.30
8477;BME280;4275;42.854;23.222;2024-01-30T11:22:42;66518.16;;;-141.02;66.16
8477;BME280;4275;42.854;23.222;2024-01-30T11:25:15;68113.44;;;-141.02;67.66
8477;BME280;4275;42.854;23.222;2024-01-30T11:27:43;68581.53;;;-141.02;64.76
8477;BME280;4275;42.854;23.222;2024-01-30T11:30:09;66143.16;;;-141.02;67.55
8477;BME280;4275;42.854;23.222;2024-01-30T11:32:36;65364.25;;;-141.02;69.21
8477;BME280;4275;42.854;23.222;2024-01-30T11:35:04;66206.94;;;-141.02;67.90
8477;BME280;4275;42.854;23.222;2024-01-30T11:37:36;64997.06;;;-141.02;68.25
8477;BME280;4275;42.854;23.222;2024-01-30T11:40:05;65453.13;;;-141.02;67.85
8477;BME280;4275;42.854;23.222;2024-01-30T11:42:34;64508.22;;;-141.02;67.67
8477;BME280;4275;42.854;23.222;2024-01-30T11:45:05;63138.66;;;-141.02;70.12
8477;BME280;4275;42.854;23.222;2024-01-30T11:47:35;63953.75;;;-141.02;70.92
8477;BME280;4275;42.854;23.222;2024-01-30T11:50:02;63204.31;;;-141.02;69.55
8477;BME280;4275;42.854;23.222;2024-01-30T11:52:32;64177.84;;;-141.02;68.57
8477;BME280;4275;42.854;23.222;2024-01-30T11:54:59;64745.88;;;-141.02;67.39
8477;BME280;4275;42.854;23.222;2024-01-30T11:57:27;65012.53;;;-141.02;67.76
8477;BME280;4275;42.854;23.222;2024-01-30T11:59:55;68894.91;;;-141.02;68.89
8477;BME280;4275;42.854;23.222;2024-01-30T12:02:22;67150.38;;;-141.02;64.86
8477;BME280;4275;42.854;23.222;2024-01-30T12:05:18;66649.63;;;-141.02;66.21
8477;BME280;4275;42.854;23.222;2024-01-30T12:07:46;64058.06;;;-141.02;66.97
8477;BME280;4275;42.854;23.222;2024-01-30T12:10:13;63569.38;;;-141.02;66.97
8477;BME280;4275;42.854;23.222;2024-01-30T12:12:42;64231.94;;;-141.02;67.00
8477;BME280;4275;42.854;23.222;2024-01-30T12:15:11;64347.88;;;-141.02;68.47
8477;BME280;4275;42.854;23.222;2024-01-30T12:17:39;64328.53;;;-141.02;67.78
8477;BME280;4275;42.854;23.222;2024-01-30T12:20:07;65549.78;;;-141.02;66.68
8477;BME280;4275;42.854;23.222;2024-01-30T12:23:05;68419.06;;;-141.02;65.97
8477;BME280;4275;42.854;23.222;2024-01-30T12:25:32;68666.66;;;-141.02;67.29
8477;BME280;4275;42.854;23.222;2024-01-30T12:27:59;68279.78;;;-141.02;67.96
8477;BME280;4275;42.854;23.222;2024-01-30T12:30:28;66655.44;;;-141.02;65.41
8477;BME280;4275;42.854;23.222;2024-01-30T12:32:55;67332.16;;;-141.02;65.32
8477;BME280;4275;42.854;23.222;2024-01-30T12:35:23;68600.88;;;-141.02;66.76
8477;BME280;4275;42.854;23.222;2024-01-30T12:37:50;66871.97;;;-141.02;67.41
8477;BME280;4275;42.854;23.222;2024-01-30T12:40:17;66781.09;;;-141.02;67.01
8477;BME280;4275;42.854;23.222;2024-01-30T12:42:46;68090.25;;;-141.02;66.96
8477;BME280;4275;42.854;23.222;2024-01-30T12:45:15;69997.78;;;-141.02;67.99
8477;BME280;4275;42.854;23.222;2024-01-30T12:51:09;65808.75;;;-141.02;67.04
8477;BME280;4275;42.854;23.222;2024-01-30T12:53:36;65770.09;;;-141.02;66.54
8477;BME280;4275;42.854;23.222;2024-01-30T12:56:03;66783.03;;;-141.02;67.43
8477;BME280;4275;42.854;23.222;2024-01-30T12:58:30;65236.69;;;-141.02;65.36
8477;BME280;4275;42.854;23.222;2024-01-30T13:00:57;66000.13;;;-141.02;65.76
8477;BME280;4275;42.854;23.222;2024-01-30T13:03:24;65331.38;;;-141.02;65.13
8477;BME280;4275;42.854;23.222;2024-01-30T13:09:14;65851.28;;;-141.02;66.09
8477;BME280;4275;42.854;23.222;2024-01-30T13:11:41;65240.56;;;-141.02;65.48
8477;BME280;4275;42.854;23.222;2024-01-30T13:14:08;65294.66;;;-141.02;65.15
8477;BME280;4275;42.854;23.222;2024-01-30T13:16:35;64599.03;;;-141.02;65.26
8477;BME280;4275;42.854;23.222;2024-01-30T13:19:02;64622.22;;;-141.02;65.53
8477;BME280;4275;42.854;23.222;2024-01-30T13:21:29;64660.84;;;-141.02;65.09
8477;BME280;4275;42.854;23.222;2024-01-30T13:23:56;64436.75;;;-141.02;65.90
8477;BME280;4275;42.854;23.222;2024-01-30T13:26:24;64471.50;;;-141.02;65.41
8477;BME280;4275;42.854;23.222;2024-01-30T13:28:51;64977.75;;;-141.02;65.52
8477;BME280;4275;42.854;23.222;2024-01-30T13:31:18;63434.16;;;-141.02;65.58
8477;BME280;4275;42.854;23.222;2024-01-30T13:33:46;63076.84;;;-141.02;66.10
8477;BME280;4275;42.854;23.222;2024-01-30T13:36:14;64255.13;;;-141.02;67.23
8477;BME280;4275;42.854;23.222;2024-01-30T13:38:41;63333.72;;;-141.02;66.68
8477;BME280;4275;42.854;23.222;2024-01-30T13:41:08;63283.50;;;-141.02;68.01
8477;BME280;4275;42.854;23.222;2024-01-30T13:43:37;63283.50;;;-141.02;66.92
8477;BME280;4275;42.854;23.222;2024-01-30T13:46:04;63335.66;;;-141.02;67.12
8477;BME280;4275;42.854;23.222;2024-01-30T13:48:31;63671.75;;;-141.02;66.86
8477;BME280;4275;42.854;23.222;2024-01-30T13:50:58;63482.44;;;-141.02;66.08
8477;BME280;4275;42.854;23.222;2024-01-30T13:53:26;62976.44;;;-141.02;67.17
8477;BME280;4275;42.854;23.222;2024-01-30T13:55:53;63109.69;;;-141.02;67.29
8477;BME280;4275;42.854;23.222;2024-01-30T13:58:21;61582.38;;;-141.02;67.69
8477;BME280;4275;42.854;23.222;2024-01-30T14:00:50;61682.78;;;-141.02;68.36
8477;BME280;4275;42.854;23.222;2024-01-30T14:03:17;61387.41;;;-141.02;68.45
8477;BME280;4275;42.854;23.222;2024-01-30T14:05:44;61034.19;;;-141.02;69.41
8477;BME280;4275;42.854;23.222;2024-01-30T14:08:11;61005.25;;;-141.02;69.93
8477;BME280;4275;42.854;23.222;2024-01-30T14:10:38;61663.47;;;-141.02;69.46
8477;BME280;4275;42.854;23.222;2024-01-30T14:13:05;61684.69;;;-141.02;69.55
8477;BME280;4275;42.854;23.222;2024-01-30T14:15:32;61953.03;;;-141.02;68.83
8477;BME280;4275;42.854;23.222;2024-01-30T14:18:00;61159.66;;;-141.02;70.18
8477;BME280;4275;42.854;23.222;2024-01-30T14:20:27;60895.22;;;-141.02;70.37
8477;BME280;4275;42.854;23.222;2024-01-30T14:22:54;60916.47;;;-141.02;70.79
8477;BME280;4275;42.854;23.222;2024-01-30T14:25:21;60715.75;;;-141.02;70.89
8477;BME280;4275;42.854;23.222;2024-01-30T14:27:48;61057.34;;;-141.02;71.46
8477;BME280;4275;42.854;23.222;2024-01-30T14:30:15;60698.38;;;-141.02;71.05
8477;BME280;4275;42.854;23.222;2024-01-30T14:32:42;61178.94;;;-141.02;72.20
8477;BME280;4275;42.854;23.222;2024-01-30T14:35:11;60625.03;;;-141.02;71.82
8477;BME280;4275;42.854;23.222;2024-01-30T14:37:38;60659.78;;;-141.02;72.54
8477;BME280;4275;42.854;23.222;2024-01-30T14:40:06;60879.78;;;-141.02;73.70
8477;BME280;4275;42.854;23.222;2024-01-30T14:42:34;60752.41;;;-141.02;72.68
8477;BME280;4275;42.854;23.222;2024-01-30T14:45:01;60538.19;;;-141.02;73.35
8477;BME280;4275;42.854;23.222;2024-01-30T14:47:28;60154.19;;;-141.02;73.66
8477;BME280;4275;42.854;23.222;2024-01-30T14:49:56;60358.72;;;-141.02;75.35
8477;BME280;4275;42.854;23.222;2024-01-30T14:52:25;60173.47;;;-141.02;75.20
8477;BME280;4275;42.854;23.222;2024-01-30T14:54:51;60254.53;;;-141.02;74.45
8477;BME280;4275;42.854;23.222;2024-01-30T14:57:18;59868.59;;;-141.02;75.27
8477;BME280;4275;42.854;23.222;2024-01-30T14:59:45;59637.09;;;-141.02;75.91
8477;BME280;4275;42.854;23.222;2024-01-30T15:02:14;59710.41;;;-141.02;76.58
8477;BME280;4275;42.854;23.222;2024-01-30T15:04:41;59490.47;;;-141.02;78.88
8477;BME280;4275;42.854;23.222;2024-01-30T15:07:08;59282.09;;;-141.02;78.89
8477;BME280;4275;42.854;23.222;2024-01-30T15:09:37;59243.53;;;-141.02;79.56
8477;BME280;4275;42.854;23.222;2024-01-30T15:12:04;59073.78;;;-141.02;79.02
8477;BME280;4275;42.854;23.222;2024-01-30T15:14:31;59017.84;;;-141.02;79.44
8477;BME280;4275;42.854;23.222;2024-01-30T15:20:09;58688.00;;;-141.02;82.15
8477;BME280;4275;42.854;23.222;2024-01-30T15:22:36;58603.13;;;-141.02;84.28
8477;BME280;4275;42.854;23.222;2024-01-30T15:25:05;58356.25;;;-141.02;89.23
8477;BME280;4275;42.854;23.222;2024-01-30T15:27:32;58263.69;;;-141.02;91.04
8477;BME280;4275;42.854;23.222;2024-01-30T15:29:59;58132.56;;;-141.02;93.55
8477;BME280;4275;42.854;23.222;2024-01-30T15:32:26;58117.13;;;-141.02;93.45
8477;BME280;4275;42.854;23.222;2024-01-30T15:35:00;58128.69;;;-141.02;93.58
8477;BME280;4275;42.854;23.222;2024-01-30T15:37:29;57812.44;;;-141.02;95.64
8477;BME280;4275;42.854;23.222;2024-01-30T15:39:56;57638.91;;;-141.02;97.83
8477;BME280;4275;42.854;23.222;2024-01-30T15:42:25;57586.84;;;-141.02;99.79
8477;BME280;4275;42.854;23.222;2024-01-30T15:44:52;57544.44;;;-141.02;100.00
8477;BME280;4275;42.854;23.222;2024-01-30T15:47:19;57569.50;;;-141.02;100.00
8477;BME280;4275;42.854;23.222;2024-01-30T15:49:45;57488.50;;;-141.02;100.00
8477;BME280;4275;42.854;23.222;2024-01-30T15:52:13;57336.19;;;-141.02;100.00
8477;BME280;4275;42.854;23.222;2024-01-30T15:54:43;57417.16;;;-141.02;100.00
8477;BME280;4275;42.854;23.222;2024-01-30T15:57:10;57430.66;;;-141.02;100.00
8477;BME280;4275;42.854;23.222;2024-01-30T15:59:38;57388.25;;;-141.02;100.00